Time;durP1;ratioP1;P1;durP2;ratioP2;P2;SDS_P1;SDS_P2;PMS_P1;PMS_P2;Temp;Humidity;BMP_temperature;BMP_pressure;BME280_temperature;BME280_humidity;BME280_pressure;Samples;Min_cycle;Max_cycle;Signal;HPM_P1;HPM_P2
2023/07/10 00:04:29;;;;;;;10.57;3.33;;;;;;;19.01;100.00;102039.78;10381076;28;20041;-68
2023/07/10 00:09:30;;;;;;;4.30;3.90;;;;;;;19.03;100.00;102021.19;10414180;28;20426;-70
2023/07/10 00:14:33;;;;;;;11.55;4.88;;;;;;;19.00;100.00;102032.63;10412722;28;20064;-69
2023/07/10 00:19:34;;;;;;;10.18;5.07;;;;;;;18.94;100.00;102033.53;10413729;28;20177;-69
2023/07/10 00:24:34;;;;;;;8.77;4.78;;;;;;;18.88;100.00;102031.66;10412178;28;20067;-71
2023/07/10 00:29:35;;;;;;;10.02;5.70;;;;;;;18.78;100.00;102032.19;10413349;28;20065;-69
2023/07/10 00:34:37;;;;;;;4.80;4.13;;;;;;;18.76;100.00;102032.41;10411743;28;20057;-68
2023/07/10 00:39:37;;;;;;;14.93;4.03;;;;;;;18.74;100.00;102036.44;10412498;28;20072;-70
2023/07/10 00:44:44;;;;;;;4.45;3.72;;;;;;;18.78;100.00;102035.75;10412621;28;20029;-69
2023/07/10 00:49:55;;;;;;;8.15;3.80;;;;;;;18.85;100.00;102032.13;10395114;28;20032;-70
2023/07/10 00:54:57;;;;;;;12.02;4.18;;;;;;;18.85;100.00;102030.22;10412676;28;20048;-68
2023/07/10 00:59:57;;;;;;;2.42;2.13;;;;;;;18.79;100.00;102031.97;10431162;28;20532;-69
2023/07/10 01:05:01;;;;;;;2.40;2.22;;;;;;;18.62;100.00;102040.94;10413675;28;20021;-69
2023/07/10 01:10:05;;;;;;;6.78;2.55;;;;;;;18.48;100.00;102042.97;10428957;28;20041;-70
2023/07/10 01:15:07;;;;;;;4.03;2.05;;;;;;;18.42;100.00;102035.63;10410788;28;20029;-69
2023/07/10 01:20:59;;;;;;;4.45;2.65;;;;;;;18.24;100.00;102037.19;10410055;28;20056;-69
2023/07/10 01:26:00;;;;;;;1.92;1.73;;;;;;;17.99;100.00;102034.38;10398620;28;20041;-70
2023/07/10 01:31:04;;;;;;;1.77;1.67;;;;;;;17.86;100.00;102031.72;10408863;28;20105;-69
2023/07/10 01:36:04;;;;;;;3.20;2.08;;;;;;;17.72;100.00;102033.66;10409508;28;20057;-70
2023/07/10 01:41:15;;;;;;;10.75;2.20;;;;;;;17.62;100.00;102036.88;10376249;28;20409;-70
2023/07/10 01:46:26;;;;;;;15.25;2.75;;;;;;;17.50;100.00;102033.13;10408978;28;20041;-69
2023/07/10 01:51:27;;;;;;;9.30;2.70;;;;;;;17.41;100.00;102039.88;10410829;28;20548;-69
2023/07/10 01:56:27;;;;;;;2.70;2.47;;;;;;;17.35;100.00;102038.84;10409668;28;20158;-69
2023/07/10 02:01:27;;;;;;;3.25;2.72;;;;;;;17.32;100.00;102035.69;10425633;28;20104;-70
2023/07/10 02:06:28;;;;;;;4.70;1.88;;;;;;;17.24;100.00;102027.72;10410718;28;20613;-71
2023/07/10 02:11:28;;;;;;;4.40;1.92;;;;;;;17.19;100.00;102022.88;10411061;28;20459;-69
2023/07/10 02:16:29;;;;;;;8.15;3.10;;;;;;;17.11;100.00;102018.47;10410125;28;20047;-70
2023/07/10 02:21:29;;;;;;;3.70;2.10;;;;;;;17.06;100.00;102014.69;10409406;28;20048;-69
2023/07/10 02:26:29;;;;;;;5.45;3.33;;;;;;;17.03;100.00;102015.97;10407881;28;20064;-70
2023/07/10 02:31:30;;;;;;;5.00;2.60;;;;;;;16.99;100.00;102009.25;10406985;28;20041;-69
2023/07/10 02:36:30;;;;;;;9.10;3.20;;;;;;;16.95;100.00;102011.56;10407251;28;20073;-68
2023/07/10 02:41:31;;;;;;;4.88;2.90;;;;;;;16.92;100.00;102006.50;10390769;28;20056;-68
2023/07/10 02:46:31;;;;;;;5.20;2.70;;;;;;;16.93;100.00;102013.66;10408555;28;20086;-68
2023/07/10 02:51:31;;;;;;;2.63;2.35;;;;;;;16.91;100.00;102013.06;10408028;28;20041;-68
2023/07/10 02:56:32;;;;;;;9.10;3.42;;;;;;;16.86;100.00;102018.31;10406476;28;20033;-68
2023/07/10 03:01:32;;;;;;;7.15;3.90;;;;;;;16.86;100.00;102025.69;10406286;28;20042;-68
2023/07/10 03:06:33;;;;;;;6.55;2.95;;;;;;;16.81;100.00;102017.25;10411556;28;20029;-69
2023/07/10 03:11:33;;;;;;;2.60;2.40;;;;;;;16.78;100.00;102020.41;10416437;28;20040;-69
2023/07/10 03:16:33;;;;;;;10.38;3.17;;;;;;;16.75;100.00;102027.13;10414791;28;20029;-69
2023/07/10 03:21:34;;;;;;;15.30;3.78;;;;;;;16.70;100.00;102032.38;10414416;28;20041;-68
2023/07/10 03:26:34;;;;;;;7.38;2.67;;;;;;;16.69;100.00;102037.03;10415844;28;20468;-70
2023/07/10 03:31:35;;;;;;;8.48;3.10;;;;;;;16.71;100.00;102043.09;10413897;28;20036;-70
2023/07/10 03:36:35;;;;;;;6.57;3.65;;;;;;;16.71;100.00;102045.84;10415761;28;20049;-71
2023/07/10 03:41:35;;;;;;;7.93;3.63;;;;;;;16.70;100.00;102026.91;10414416;28;20481;-69
2023/07/10 03:46:36;;;;;;;10.05;3.03;;;;;;;16.69;100.00;102033.44;10413981;28;20563;-70
2023/07/10 03:51:37;;;;;;;12.38;4.03;;;;;;;16.72;100.00;102038.50;10414091;28;20089;-70
2023/07/10 03:56:37;;;;;;;5.22;2.58;;;;;;;16.71;100.00;102051.31;10413782;28;20040;-69
2023/07/10 04:01:39;;;;;;;9.50;2.78;;;;;;;16.69;100.00;102047.13;10413542;28;20033;-69
2023/07/10 04:06:39;;;;;;;3.08;2.38;;;;;;;16.71;100.00;102059.50;10413983;28;20882;-70
2023/07/10 04:11:39;;;;;;;3.15;2.83;;;;;;;16.76;100.00;102069.88;10412488;28;20038;-69
2023/07/10 04:16:40;;;;;;;8.60;3.78;;;;;;;16.79;100.00;102068.63;10412660;28;20044;-69
2023/07/10 04:21:40;;;;;;;7.22;3.47;;;;;;;16.83;100.00;102076.19;10413429;28;20124;-67
2023/07/10 04:26:41;;;;;;;9.05;2.53;;;;;;;16.85;100.00;102074.09;10411999;28;20053;-69
2023/07/10 04:31:41;;;;;;;3.05;2.75;;;;;;;16.92;100.00;102080.38;10411429;28;20068;-68
2023/07/10 04:36:42;;;;;;;5.57;3.00;;;;;;;17.00;100.00;102075.75;10412821;28;20057;-69
2023/07/10 04:41:44;;;;;;;7.50;3.10;;;;;;;17.09;100.00;102074.47;10413194;28;20057;-68
2023/07/10 04:46:44;;;;;;;4.85;3.20;;;;;;;17.20;100.00;102062.91;10412567;28;20415;-70
2023/07/10 04:51:45;;;;;;;8.38;3.88;;;;;;;17.94;100.00;102072.59;10394319;28;20124;-69
2023/07/10 04:56:46;;;;;;;4.80;3.33;;;;;;;19.07;100.00;102074.56;10427470;28;20496;-69
2023/07/10 05:01:46;;;;;;;9.77;3.83;;;;;;;19.91;100.00;102077.69;10409559;28;20185;-69
2023/07/10 05:06:47;;;;;;;4.68;2.30;;;;;;;20.39;100.00;102080.41;10411803;28;20053;-69
2023/07/10 05:11:47;;;;;;;4.45;3.60;;;;;;;20.84;100.00;102085.44;10409993;28;20041;-68
2023/07/10 05:16:48;;;;;;;6.60;3.33;;;;;;;21.20;100.00;102080.78;10409699;28;20034;-69
2023/07/10 05:21:48;;;;;;;4.03;2.65;;;;;;;21.56;100.00;102071.44;10409579;28;20044;-69
2023/07/10 05:26:48;;;;;;;7.90;2.55;;;;;;;21.89;100.00;102078.22;10409266;28;20041;-69
2023/07/10 05:31:49;;;;;;;8.10;2.83;;;;;;;22.30;100.00;102070.72;10410284;28;20039;-69
2023/07/10 05:36:49;;;;;;;5.53;2.42;;;;;;;22.63;100.00;102077.41;10410115;28;20103;-69
2023/07/10 05:41:50;;;;;;;6.63;3.05;;;;;;;22.79;100.00;102086.78;10410404;28;20044;-68
2023/07/10 05:46:51;;;;;;;11.27;3.67;;;;;;;23.13;100.00;102085.72;10392881;28;20038;-70
2023/07/10 05:51:52;;;;;;;6.57;2.63;;;;;;;23.56;100.00;102086.88;10408621;28;20381;-68
2023/07/10 05:56:52;;;;;;;10.82;2.47;;;;;;;23.86;100.00;102089.22;10409822;28;20033;-68
2023/07/10 06:01:53;;;;;;;5.40;2.55;;;;;;;24.16;100.00;102099.00;10410454;28;20480;-69
2023/07/10 06:06:54;;;;;;;5.00;2.35;;;;;;;24.35;100.00;102094.78;10411958;28;20037;-69
2023/07/10 06:11:54;;;;;;;8.43;3.33;;;;;;;24.67;100.00;102101.47;10409205;28;20133;-69
2023/07/10 06:16:55;;;;;;;9.55;2.05;;;;;;;25.08;100.00;102099.03;10407748;28;20111;-70
2023/07/10 06:22:08;;;;;;;8.05;3.22;;;;;;;25.06;100.00;102099.31;10408988;28;20057;-69
2023/07/10 06:27:10;;;;;;;4.13;2.55;;;;;;;25.19;100.00;102109.97;10391523;28;20555;-68
2023/07/10 06:32:11;;;;;;;5.57;2.20;;;;;;;25.60;100.00;102104.66;10408427;28;20041;-69
2023/07/10 06:37:11;;;;;;;3.80;2.63;;;;;;;26.02;100.00;102105.72;10408146;28;20080;-69
2023/07/10 06:42:11;;;;;;;7.30;3.17;;;;;;;26.16;100.00;102113.25;10408005;28;20045;-68
2023/07/10 06:47:12;;;;;;;3.88;2.25;;;;;;;26.23;100.00;102120.47;10408273;28;20041;-69
2023/07/10 06:52:12;;;;;;;6.03;3.42;;;;;;;26.33;100.00;102126.91;10406397;28;20069;-68
2023/07/10 06:57:13;;;;;;;8.27;2.85;;;;;;;26.77;100.00;102126.47;10408164;28;20122;-64
2023/07/10 07:02:13;;;;;;;6.57;2.60;;;;;;;27.08;100.00;102134.78;10405745;28;20041;-64
2023/07/10 07:07:14;;;;;;;9.38;2.63;;;;;;;27.15;97.15;102135.34;10391303;28;20079;-65
2023/07/10 07:12:14;;;;;;;3.85;2.75;;;;;;;27.46;100.00;102136.16;10406707;28;20044;-65
2023/07/10 07:17:15;;;;;;;3.78;2.33;;;;;;;27.61;93.54;102140.84;10408577;28;20064;-64
2023/07/10 07:22:16;;;;;;;12.40;3.20;;;;;;;27.64;93.27;102131.94;10391200;28;20061;-64
2023/07/10 07:27:16;;;;;;;4.38;3.35;;;;;;;27.70;95.81;102138.31;10406657;28;20042;-64
2023/07/10 07:32:17;;;;;;;13.93;4.13;;;;;;;27.90;88.81;102143.84;10405867;28;20427;-64
2023/07/10 07:37:18;;;;;;;13.13;3.30;;;;;;;28.04;96.16;102138.47;10405687;28;20117;-64
2023/07/10 07:42:18;;;;;;;12.95;2.88;;;;;;;28.44;99.05;102133.84;10406009;28;20436;-66
2023/07/10 07:47:19;;;;;;;8.70;3.25;;;;;;;28.47;85.93;102127.69;10406757;28;20034;-64
2023/07/10 07:52:19;;;;;;;5.63;2.58;;;;;;;28.69;95.69;102130.06;10407199;28;20041;-69
2023/07/10 07:57:22;;;;;;;6.93;2.55;;;;;;;28.92;92.70;102139.63;10414305;28;20033;-63
2023/07/10 08:02:23;;;;;;;6.68;3.05;;;;;;;29.22;97.22;102135.75;10414501;28;20109;-67
2023/07/10 08:07:23;;;;;;;1.90;1.80;;;;;;;29.01;89.92;102128.72;10396477;28;20132;-67
2023/07/10 08:12:23;;;;;;;7.28;2.50;;;;;;;29.31;81.37;102124.78;10396144;28;20111;-67
2023/07/10 08:17:24;;;;;;;8.95;3.20;;;;;;;29.57;95.72;102130.91;10413735;28;20044;-68
2023/07/10 08:22:24;;;;;;;4.55;2.20;;;;;;;29.71;93.53;102123.53;10412514;28;20076;-69
2023/07/10 08:27:25;;;;;;;9.30;2.50;;;;;;;30.05;96.37;102125.31;10413726;28;20084;-70
2023/07/10 08:32:25;;;;;;;6.25;2.67;;;;;;;30.48;92.55;102112.16;10412866;28;20543;-65
2023/07/10 08:37:26;;;;;;;2.53;1.95;;;;;;;30.76;94.08;102126.25;10412925;28;20068;-66
2023/07/10 08:42:28;;;;;;;2.63;2.42;;;;;;;30.40;94.94;102128.78;10379168;28;20386;-67
2023/07/10 08:47:57;;;;;;;2.53;2.20;;;;;;;30.61;87.95;102140.50;10411261;28;20380;-74
2023/07/10 08:53:11;;;;;;;2.60;2.40;;;;;;;30.43;83.19;102142.16;10408011;28;20056;-70
2023/07/10 08:58:33;;;;;;;2.65;2.40;;;;;;;30.04;83.76;102137.66;10412283;28;20084;-69
2023/07/10 09:03:46;;;;;;;5.22;2.53;;;;;;;30.39;80.16;102141.09;10394047;28;20397;-67
2023/07/10 09:08:48;;;;;;;2.25;2.08;;;;;;;30.74;83.89;102140.56;10396164;28;20037;-70
2023/07/10 09:13:58;;;;;;;12.65;2.20;;;;;;;29.92;78.74;102138.06;10393998;28;20036;-69
2023/07/10 09:19:05;;;;;;;7.53;2.20;;;;;;;29.69;81.59;102145.34;10411486;28;20116;-70
2023/07/10 09:24:17;;;;;;;3.25;2.15;;;;;;;30.09;72.58;102135.63;10395322;28;20037;-70
2023/07/10 09:29:25;;;;;;;5.07;2.80;;;;;;;30.57;74.04;102134.69;10395898;28;20065;-68
2023/07/10 09:34:30;;;;;;;6.40;3.70;;;;;;;29.67;77.30;102133.63;10410715;28;20029;-67
2023/07/10 09:39:32;;;;;;;3.83;3.15;;;;;;;29.42;73.57;102141.13;10395893;28;20421;-69
2023/07/10 09:44:37;;;;;;;6.63;2.45;;;;;;;30.60;69.56;102145.25;10420676;28;20095;-74
2023/07/10 09:49:46;;;;;;;15.95;2.85;;;;;;;31.34;72.67;102148.25;10397912;28;20132;-69
2023/07/10 09:54:47;;;;;;;3.58;2.25;;;;;;;32.05;71.66;102146.00;10399676;28;20037;-71
2023/07/10 09:59:52;;;;;;;10.13;2.28;;;;;;;31.78;58.97;102140.38;10397266;28;20033;-69
2023/07/10 10:05:11;;;;;;;5.07;3.03;;;;;;;31.76;55.68;102131.47;10410157;28;20033;-72
2023/07/10 10:10:25;;;;;;;2.95;2.58;;;;;;;31.34;58.35;102136.22;10410949;28;20485;-70
2023/07/10 10:15:43;;;;;;;5.60;2.95;;;;;;;31.35;54.19;102143.47;10408480;28;20087;-74
2023/07/10 10:20:43;;;;;;;6.80;2.15;;;;;;;31.25;50.54;102145.28;10408615;28;20055;-69
2023/07/10 10:25:44;;;;;;;6.55;2.42;;;;;;;30.94;53.57;102147.78;10408108;28;20460;-69
2023/07/10 10:30:48;;;;;;;8.30;3.35;;;;;;;31.56;52.23;102152.31;10408741;28;20034;-71
2023/07/10 10:36:04;;;;;;;9.88;2.47;;;;;;;31.62;52.77;102148.25;10407780;28;20053;-69
2023/07/10 10:41:37;;;;;;;7.93;3.08;;;;;;;31.61;50.83;102155.84;10408254;28;20049;-74
2023/07/10 10:46:52;;;;;;;2.38;2.25;;;;;;;31.91;50.48;102157.25;10353276;28;20057;-73
2023/07/10 10:52:07;;;;;;;2.10;2.00;;;;;;;31.62;45.87;102143.53;10407621;28;20610;-70
2023/07/10 10:57:34;;;;;;;3.42;2.10;;;;;;;31.25;42.46;102147.28;10408253;28;20021;-72
2023/07/10 11:02:44;;;;;;;6.72;2.25;;;;;;;30.85;44.31;102144.03;10376308;28;20037;-71
2023/07/10 11:07:45;;;;;;;6.47;2.42;;;;;;;31.21;47.07;102144.25;10410011;28;20117;-72
2023/07/10 11:12:45;;;;;;;6.63;1.92;;;;;;;31.49;43.54;102141.50;10375663;28;20030;-71
2023/07/10 11:17:49;;;;;;;7.70;2.33;;;;;;;31.15;42.88;102144.66;10409082;28;20495;-69
2023/07/10 11:22:53;;;;;;;9.57;3.08;;;;;;;31.49;42.08;102131.16;10408089;28;20021;-71
2023/07/10 11:27:54;;;;;;;10.57;2.17;;;;;;;31.35;40.95;102123.88;10412484;28;20030;-72
2023/07/10 11:33:14;;;;;;;2.83;1.85;;;;;;;31.33;38.49;102123.31;10414607;28;20033;-70
2023/07/10 11:38:16;;;;;;;4.03;2.50;;;;;;;31.55;41.66;102119.84;10415914;28;20057;-71
2023/07/10 11:43:25;;;;;;;6.97;2.67;;;;;;;31.67;40.62;102117.38;10414965;28;20049;-69
2023/07/10 11:48:43;;;;;;;6.72;2.53;;;;;;;32.02;40.26;102110.22;10415430;28;20567;-71
2023/07/10 11:53:43;;;;;;;2.00;1.85;;;;;;;32.30;39.36;102101.75;10430055;28;20034;-70
2023/07/10 11:58:43;;;;;;;2.75;1.77;;;;;;;31.84;35.06;102100.75;10397268;28;20136;-70
2023/07/10 12:03:44;;;;;;;2.83;1.98;;;;;;;31.71;34.90;102107.19;10413792;28;20038;-70
2023/07/10 12:08:46;;;;;;;1.65;1.15;;;;;;;31.49;32.81;102107.91;10413971;28;20029;-70
2023/07/10 12:13:46;;;;;;;2.75;2.33;;;;;;;31.34;36.34;102103.47;10414952;28;20065;-72
2023/07/10 12:18:47;;;;;;;1.80;1.48;;;;;;;31.86;34.57;102094.84;10414428;28;20069;-69
2023/07/10 12:24:02;;;;;;;2.25;1.63;;;;;;;32.22;32.81;102094.06;10412923;28;20114;-68
2023/07/10 12:29:02;;;;;;;4.70;2.20;;;;;;;31.99;32.38;102090.41;10412934;28;20045;-73
2023/07/10 12:34:03;;;;;;;2.13;1.92;;;;;;;32.09;31.83;102096.59;10413276;28;20290;-70
2023/07/10 12:39:06;;;;;;;5.35;1.42;;;;;;;32.40;34.44;102093.09;10395697;28;20060;-72
2023/07/10 12:44:06;;;;;;;1.75;1.65;;;;;;;32.53;32.51;102095.03;10396229;28;20074;-65
2023/07/10 12:49:12;;;;;;;3.15;2.00;;;;;;;32.56;33.44;102088.78;10414216;28;20040;-69
2023/07/10 12:54:22;;;;;;;;;;;;;;;32.53;31.54;102083.00;10412793;28;20085;-72
2023/07/10 12:59:41;;;;;;;2.85;1.23;;;;;;;32.07;31.37;102070.88;10412753;28;19917;-72
2023/07/10 13:04:47;;;;;;;3.28;1.92;;;;;;;32.29;34.95;102072.03;10412627;28;20087;-72
2023/07/10 13:10:14;;;;;;;1.20;1.10;;;;;;;32.61;33.26;102066.22;10379884;28;20033;-69
2023/07/10 13:15:14;;;;;;;5.47;1.75;;;;;;;32.33;32.44;102068.28;10411715;28;20104;-65
2023/07/10 13:20:23;;;;;;;1.27;1.27;;;;;;;32.25;32.99;102068.22;10410801;28;20120;-66
2023/07/10 13:25:24;;;;;;;3.83;2.13;;;;;;;32.00;33.02;102064.03;10411716;28;20037;-70
2023/07/10 13:30:25;;;;;;;4.57;2.25;;;;;;;31.98;32.87;102055.13;10377421;28;20045;-68
2023/07/10 13:35:25;;;;;;;2.63;1.58;;;;;;;31.65;33.08;102060.84;10410037;28;20464;-68
2023/07/10 13:40:26;;;;;;;1.33;1.17;;;;;;;32.06;35.63;102046.78;10426551;28;20060;-67
2023/07/10 13:45:27;;;;;;;4.22;1.98;;;;;;;32.29;34.52;102044.84;10411107;28;20037;-71
2023/07/10 13:50:27;;;;;;;3.50;2.05;;;;;;;32.33;36.00;102045.88;10409700;28;20033;-68
2023/07/10 13:55:28;;;;;;;1.55;1.45;;;;;;;32.25;35.12;102026.16;10410389;28;20108;-66
2023/07/10 14:00:29;;;;;;;2.45;1.90;;;;;;;31.92;36.53;102020.78;10424677;28;20021;-66
2023/07/10 14:05:29;;;;;;;2.10;1.88;;;;;;;31.79;36.27;102025.25;10408177;28;20046;-66
2023/07/10 14:10:30;;;;;;;2.20;1.65;;;;;;;31.90;36.58;102023.06;10409342;28;20067;-65
2023/07/10 14:15:30;;;;;;;2.45;1.90;;;;;;;31.74;36.27;102014.16;10391348;28;20041;-67
2023/07/10 14:20:31;;;;;;;2.00;1.47;;;;;;;31.45;35.39;102020.09;10424539;28;20037;-65
2023/07/10 14:25:31;;;;;;;2.67;1.20;;;;;;;31.33;34.49;102022.56;10420333;28;20382;-70
2023/07/10 14:30:32;;;;;;;1.60;1.50;;;;;;;31.18;36.14;102021.75;10432812;28;20048;-67
2023/07/10 14:35:32;;;;;;;1.23;1.20;;;;;;;31.29;36.34;102008.38;10449439;28;20223;-64
2023/07/10 14:40:32;;;;;;;1.08;1.00;;;;;;;31.03;36.92;102016.44;10449929;28;20435;-64
2023/07/10 14:45:33;;;;;;;0.88;0.88;;;;;;;30.96;36.90;102002.88;10464828;28;20036;-71
2023/07/10 14:50:33;;;;;;;3.07;1.70;;;;;;;30.92;37.31;102006.56;10449648;28;20040;-72
2023/07/10 14:55:34;;;;;;;1.20;1.17;;;;;;;30.54;34.73;101993.53;10448811;28;20286;-70
2023/07/10 15:00:34;;;;;;;1.52;1.42;;;;;;;30.38;36.41;101997.75;10452344;28;20142;-70
2023/07/10 15:05:34;;;;;;;1.48;1.35;;;;;;;30.14;36.93;101981.06;10461206;28;20103;-70
2023/07/10 15:10:35;;;;;;;8.98;1.67;;;;;;;30.10;36.73;101961.28;10475695;28;20048;-70
2023/07/10 15:15:35;;;;;;;1.67;1.58;;;;;;;29.91;36.46;101968.03;10458016;28;20480;-71
2023/07/10 15:20:36;;;;;;;3.70;1.80;;;;;;;29.85;37.21;101968.09;10440108;28;20178;-72
2023/07/10 15:25:37;;;;;;;4.65;1.88;;;;;;;29.44;37.67;101965.84;10472992;28;20041;-70
2023/07/10 15:30:37;;;;;;;6.63;2.40;;;;;;;29.33;37.49;101952.34;10457652;28;20041;-69
2023/07/10 15:35:37;;;;;;;3.53;1.65;;;;;;;29.30;37.32;101950.97;10455734;28;20306;-69
2023/07/10 15:40:39;;;;;;;2.47;2.20;;;;;;;29.25;37.80;101947.41;10458025;28;20064;-71
2023/07/10 15:45:39;;;;;;;2.28;1.60;;;;;;;29.18;37.81;101943.03;10456119;28;20352;-70
2023/07/10 15:50:40;;;;;;;4.32;2.15;;;;;;;28.97;37.66;101920.13;10457031;28;20085;-69
2023/07/10 15:55:41;;;;;;;2.30;2.03;;;;;;;28.97;37.54;101920.13;10471834;28;20061;-71
2023/07/10 16:00:43;;;;;;;4.38;1.80;;;;;;;28.87;37.94;101916.59;10454539;28;20068;-69
2023/07/10 16:05:43;;;;;;;4.70;2.15;;;;;;;28.78;38.12;101907.22;10438856;28;20044;-71
2023/07/10 16:10:45;;;;;;;5.30;2.30;;;;;;;28.15;38.32;101906.16;10456604;28;20079;-70
2023/07/10 16:15:46;;;;;;;2.95;1.75;;;;;;;28.10;38.41;101908.97;10420276;28;20029;-71
2023/07/10 16:20:46;;;;;;;11.32;1.80;;;;;;;28.05;39.47;101904.31;10471617;28;20037;-69
2023/07/10 16:25:47;;;;;;;4.10;1.63;;;;;;;27.74;39.83;101891.72;10454028;28;20063;-71
2023/07/10 16:30:47;;;;;;;3.83;2.33;;;;;;;27.23;39.73;101889.25;10453237;28;20508;-69
2023/07/10 16:35:48;;;;;;;10.07;2.03;;;;;;;26.86;39.70;101894.06;10454763;28;20053;-70
2023/07/10 16:40:51;;;;;;;3.42;1.88;;;;;;;26.52;39.30;101882.81;10455228;28;20064;-69
2023/07/10 16:45:51;;;;;;;4.55;2.38;;;;;;;26.37;39.61;101889.19;10454847;28;20029;-69
2023/07/10 16:50:53;;;;;;;2.65;1.70;;;;;;;26.00;39.51;101897.78;10454253;28;20052;-72
2023/07/10 16:55:54;;;;;;;1.52;1.40;;;;;;;25.89;39.71;101893.38;10454856;28;20029;-70
2023/07/10 17:00:54;;;;;;;1.83;1.67;;;;;;;25.75;40.22;101884.72;10455272;28;20104;-70
2023/07/10 17:05:55;;;;;;;6.93;2.13;;;;;;;25.51;40.41;101874.13;10437388;28;20033;-71
2023/07/10 17:11:01;;;;;;;6.93;2.28;;;;;;;25.35;40.70;101879.94;10453180;28;20037;-69
2023/07/10 17:16:02;;;;;;;;;;;;;;;25.14;40.72;101879.00;10453701;28;20091;-70
2023/07/10 17:21:03;;;;;;;2.70;2.03;;;;;;;25.14;40.92;101876.25;10455050;28;19974;-69
2023/07/10 17:26:04;;;;;;;1.63;1.25;;;;;;;24.98;41.23;101886.41;10454394;28;20043;-69
2023/07/10 17:31:20;;;;;;;7.43;1.98;;;;;;;24.82;41.50;101878.03;10435985;28;20040;-69
2023/07/10 17:36:21;;;;;;;2.58;2.20;;;;;;;24.73;41.51;101865.81;10453913;28;20596;-71
2023/07/10 17:41:25;;;;;;;2.72;2.13;;;;;;;24.61;41.89;101858.81;10453045;28;20129;-71
2023/07/10 17:46:30;;;;;;;10.55;3.33;;;;;;;24.56;42.04;101860.44;10453319;28;20487;-69
2023/07/10 17:51:32;;;;;;;4.65;2.25;;;;;;;24.35;42.43;101864.16;10454600;28;20091;-69
2023/07/10 17:56:32;;;;;;;8.80;2.53;;;;;;;24.04;43.94;101857.56;10469903;28;20063;-72
2023/07/10 18:01:32;;;;;;;5.05;1.83;;;;;;;23.86;43.44;101858.78;10453112;28;20121;-70
2023/07/10 18:06:33;;;;;;;3.45;1.75;;;;;;;23.77;43.29;101860.38;10454368;28;20102;-70
2023/07/10 18:11:35;;;;;;;6.43;2.10;;;;;;;23.71;43.10;101862.28;10452106;28;20051;-70
2023/07/10 18:16:36;;;;;;;2.92;2.08;;;;;;;23.57;43.89;101875.63;10452456;28;20383;-72
2023/07/10 18:21:36;;;;;;;4.50;3.53;;;;;;;23.49;44.04;101869.75;10452568;28;20033;-70
2023/07/10 18:26:37;;;;;;;1.85;1.67;;;;;;;23.40;44.58;101870.22;10452129;28;20116;-70
2023/07/10 18:31:38;;;;;;;7.28;1.63;;;;;;;23.27;44.37;101855.97;10450654;28;20041;-70
2023/07/10 18:36:38;;;;;;;4.53;3.03;;;;;;;23.21;44.15;101844.03;10448657;28;20515;-69
2023/07/10 18:41:40;;;;;;;11.55;3.28;;;;;;;23.11;45.15;101839.22;10448741;28;20071;-69
2023/07/10 18:46:40;;;;;;;3.25;2.08;;;;;;;22.94;46.11;101831.03;10432973;28;20055;-70
2023/07/10 18:51:42;;;;;;;2.83;2.20;;;;;;;22.82;45.63;101818.41;10449375;28;20044;-70
2023/07/10 18:56:43;;;;;;;6.25;2.95;;;;;;;22.84;46.01;101833.59;10449590;28;20087;-70
2023/07/10 19:01:43;;;;;;;10.20;2.45;;;;;;;22.93;45.48;101821.03;10450136;28;20495;-69
2023/07/10 19:06:44;;;;;;;10.45;1.95;;;;;;;22.91;45.69;101825.13;10449903;28;20155;-72
2023/07/10 19:11:44;;;;;;;2.38;2.15;;;;;;;22.58;48.55;101826.09;10448827;28;20120;-71
2023/07/10 19:16:45;;;;;;;3.03;1.50;;;;;;;22.28;48.97;101821.81;10447426;28;20463;-72
2023/07/10 19:21:45;;;;;;;5.30;3.00;;;;;;;22.20;47.58;101817.53;10447109;28;20458;-71
2023/07/10 19:26:45;;;;;;;3.80;1.73;;;;;;;22.05;49.71;101817.31;10447413;28;20056;-71
2023/07/10 19:31:58;;;;;;;6.53;2.42;;;;;;;21.70;49.35;101809.28;10448211;28;20032;-69
2023/07/10 19:36:58;;;;;;;7.45;2.47;;;;;;;21.51;49.05;101806.75;10447343;28;20086;-69
2023/07/10 19:41:59;;;;;;;22.30;2.50;;;;;;;;;;10449536;28;20087;-69
2023/07/10 19:46:59;;;;;;;4.50;1.98;;;;;;;21.14;51.12;101803.56;10456900;28;20109;-70
2023/07/10 19:52:00;;;;;;;3.47;2.45;;;;;;;20.99;50.15;101792.25;10472214;28;20043;-70
2023/07/10 19:57:00;;;;;;;9.25;3.75;;;;;;;20.98;49.77;101794.16;10454973;28;20068;-70
2023/07/10 20:02:01;;;;;;;5.72;2.08;;;;;;;20.95;49.68;101791.91;10437560;28;20138;-69
2023/07/10 20:07:01;;;;;;;1.80;1.45;;;;;;;20.89;49.77;101782.69;10471171;28;20126;-70
2023/07/10 20:12:02;;;;;;;3.92;2.67;;;;;;;20.85;50.10;101781.53;10454650;28;20040;-71
2023/07/10 20:17:03;;;;;;;8.27;2.63;;;;;;;20.82;50.03;101792.19;10437339;28;20386;-69
2023/07/10 20:22:04;;;;;;;3.88;1.58;;;;;;;20.72;49.83;101798.31;10470544;28;20078;-70
2023/07/10 20:27:04;;;;;;;3.35;2.20;;;;;;;20.66;49.78;101794.63;10470402;28;20043;-70
2023/07/10 20:32:09;;;;;;;6.50;2.05;;;;;;;20.69;50.06;101776.78;10469847;28;20167;-71
2023/07/10 20:37:09;;;;;;;2.75;2.05;;;;;;;20.85;50.08;101783.44;10453570;28;20056;-71
2023/07/10 20:42:13;;;;;;;2.47;2.28;;;;;;;20.88;50.12;101781.03;10470161;28;20111;-70
2023/07/10 20:47:14;;;;;;;4.07;1.85;;;;;;;20.91;50.12;101785.22;10454029;28;20045;-70
2023/07/10 20:52:18;;;;;;;4.72;2.40;;;;;;;20.98;50.19;101780.41;10453706;28;20155;-70
2023/07/10 20:57:18;;;;;;;10.77;3.20;;;;;;;21.05;50.12;101772.81;10452391;28;20112;-69
2023/07/10 21:02:19;;;;;;;6.60;3.15;;;;;;;20.99;50.12;101779.31;10453130;28;20131;-71
2023/07/10 21:07:20;;;;;;;5.13;2.55;;;;;;;20.90;50.41;101783.56;10454597;28;20476;-70
2023/07/10 21:12:20;;;;;;;5.60;2.85;;;;;;;20.63;53.99;101772.25;10453661;28;20455;-71
2023/07/10 21:17:26;;;;;;;4.10;1.70;;;;;;;20.49;54.22;101774.41;10469074;28;20131;-70
2023/07/10 21:22:27;;;;;;;3.70;2.30;;;;;;;20.52;52.88;101775.88;10435605;28;20047;-69
2023/07/10 21:27:28;;;;;;;4.20;2.15;;;;;;;20.54;52.71;101766.28;10452463;28;20044;-69
2023/07/10 21:32:29;;;;;;;6.35;2.63;;;;;;;20.58;52.63;101767.50;10469429;28;20429;-70
2023/07/10 21:37:30;;;;;;;17.30;2.90;;;;;;;20.49;55.68;101760.66;10452261;28;20393;-70
2023/07/10 21:42:33;;;;;;;5.65;1.45;;;;;;;20.29;56.00;101757.44;10452001;28;20079;-70
2023/07/10 21:47:33;;;;;;;2.67;2.22;;;;;;;20.17;54.68;101761.06;10451027;28;20029;-71
2023/07/10 21:52:34;;;;;;;10.55;2.42;;;;;;;20.00;54.41;101751.84;10451373;28;20043;-70
2023/07/10 21:57:34;;;;;;;3.38;2.30;;;;;;;19.86;54.26;101750.44;10449700;28;20433;-70
2023/07/10 22:02:35;;;;;;;12.90;2.95;;;;;;;19.72;56.44;101742.44;10451028;28;20079;-69
2023/07/10 22:07:35;;;;;;;2.78;2.45;;;;;;;19.59;59.13;101736.28;10450559;28;20052;-71
2023/07/10 22:12:36;;;;;;;3.67;2.25;;;;;;;19.46;58.44;101729.09;10448828;28;20037;-72
2023/07/10 22:17:36;;;;;;;1.98;1.83;;;;;;;19.35;58.22;101733.50;10449019;28;20536;-71
2023/07/10 22:22:36;;;;;;;3.22;1.92;;;;;;;19.25;57.60;101731.34;10450105;28;20036;-70
2023/07/10 22:27:37;;;;;;;2.78;1.90;;;;;;;19.20;57.72;101724.88;10386673;28;20064;-69
2023/07/10 22:32:38;;;;;;;2.85;2.10;;;;;;;19.12;59.69;101708.75;10449275;28;20051;-69
2023/07/10 22:37:38;;;;;;;7.28;2.30;;;;;;;19.03;60.10;101710.97;10448285;28;20086;-70
2023/07/10 22:42:39;;;;;;;5.13;2.00;;;;;;;18.98;59.54;101705.34;10449678;28;20754;-70
2023/07/10 22:47:39;;;;;;;2.95;1.85;;;;;;;18.97;59.45;101700.94;10431789;28;20065;-70
2023/07/10 22:52:41;;;;;;;6.28;2.60;;;;;;;18.98;58.99;101694.34;10450190;28;20136;-71
2023/07/10 22:57:45;;;;;;;2.55;1.80;;;;;;;18.93;59.48;101691.50;10447988;28;20036;-71
2023/07/10 23:02:46;;;;;;;6.22;2.90;;;;;;;18.89;61.68;101668.31;10449101;28;20033;-70
2023/07/10 23:07:46;;;;;;;3.38;2.33;;;;;;;18.88;61.35;101666.66;10449520;28;20484;-71